createdAt,value
2023-05-20T00:00:49.837Z,11.60
2023-05-20T00:03:17.627Z,11.53
2023-05-20T00:05:44.954Z,11.46
2023-05-20T00:08:12.204Z,11.41
2023-05-20T00:10:39.957Z,11.35
2023-05-20T00:13:07.381Z,11.28
2023-05-20T00:15:35.078Z,11.23
2023-05-20T00:18:04.395Z,11.19
2023-05-20T00:20:32.667Z,11.12
2023-05-20T00:22:59.694Z,11.06
2023-05-20T00:25:26.760Z,11.02
2023-05-20T00:27:53.692Z,10.97
2023-05-20T00:30:20.903Z,10.95
2023-05-20T00:32:48.147Z,10.89
2023-05-20T00:35:15.120Z,10.86
2023-05-20T00:37:42.007Z,10.83
2023-05-20T00:40:09.576Z,10.80
2023-05-20T00:42:36.533Z,10.73
2023-05-20T00:45:03.529Z,10.68
2023-05-20T00:47:36.875Z,10.65
2023-05-20T00:50:04.768Z,10.61
2023-05-20T00:52:33.130Z,10.54
2023-05-20T00:55:00.525Z,10.51
2023-05-20T00:57:27.952Z,10.48
2023-05-20T00:59:55.247Z,10.43
2023-05-20T01:02:23.547Z,10.40
2023-05-20T01:04:50.551Z,10.36
2023-05-20T01:07:18.848Z,10.34
2023-05-20T01:09:46.156Z,10.32
2023-05-20T01:12:29.839Z,10.36
2023-05-20T01:15:07.294Z,10.36
2023-05-20T01:17:46.977Z,10.41
2023-05-20T01:20:15.562Z,10.47
2023-05-20T01:22:55.956Z,10.47
2023-05-20T01:25:23.206Z,10.54
2023-05-20T01:27:51.251Z,10.61
2023-05-20T01:30:18.491Z,10.64
2023-05-20T01:32:53.210Z,10.68
2023-05-20T01:35:22.019Z,10.78
2023-05-20T01:37:51.122Z,10.81
2023-05-20T01:40:19.500Z,10.84
2023-05-20T01:42:53.318Z,10.79
2023-05-20T01:45:21.049Z,10.76
2023-05-20T01:47:48.459Z,10.72
2023-05-20T01:50:15.481Z,10.66
2023-05-20T01:52:42.581Z,10.60
2023-05-20T01:55:10.259Z,10.56
2023-05-20T01:57:37.288Z,10.52
2023-05-20T02:00:04.885Z,10.49
2023-05-20T02:02:31.862Z,10.49
2023-05-20T02:04:58.865Z,10.46
2023-05-20T02:07:25.830Z,10.40
2023-05-20T02:09:52.770Z,10.36
2023-05-20T02:12:19.721Z,10.28
2023-05-20T02:14:48.374Z,10.24
2023-05-20T02:17:17.585Z,10.19
2023-05-20T02:19:46.156Z,10.11
2023-05-20T02:22:14.282Z,10.05
2023-05-20T02:24:41.905Z,9.98
2023-05-20T02:27:08.922Z,9.94
2023-05-20T02:29:35.840Z,9.87
2023-05-20T02:32:02.982Z,9.83
2023-05-20T02:34:31.838Z,9.76
2023-05-20T02:36:58.974Z,9.68
2023-05-20T02:39:26.161Z,9.65
2023-05-20T02:41:53.131Z,9.55
2023-05-20T02:44:20.237Z,9.52
2023-05-20T02:46:47.219Z,9.46
2023-05-20T02:49:14.157Z,9.40
2023-05-20T02:51:41.164Z,9.35
2023-05-20T02:54:08.143Z,9.30
2023-05-20T02:56:35.149Z,9.25
2023-05-20T02:59:02.045Z,9.17
2023-05-20T03:01:29.804Z,9.13
2023-05-20T03:03:56.808Z,9.06
2023-05-20T03:06:23.824Z,9.02
2023-05-20T03:08:50.770Z,8.96
2023-05-20T03:11:17.706Z,8.92
2023-05-20T03:13:44.646Z,8.89
2023-05-20T03:16:13.356Z,8.84
2023-05-20T03:18:41.065Z,8.78
2023-05-20T03:21:08.163Z,8.73
2023-05-20T03:23:35.705Z,8.70
2023-05-20T03:26:03.698Z,8.65
2023-05-20T03:28:30.692Z,8.64
2023-05-20T03:30:57.648Z,8.59
2023-05-20T03:33:26.493Z,8.55
2023-05-20T03:35:53.461Z,8.51
2023-05-20T03:38:20.504Z,8.47
2023-05-20T03:40:47.429Z,8.44
2023-05-20T03:43:14.425Z,8.37
2023-05-20T03:45:41.436Z,8.34
2023-05-20T03:48:08.518Z,8.30
2023-05-20T03:50:35.908Z,8.27
2023-05-20T03:53:02.948Z,8.22
2023-05-20T03:55:29.899Z,8.20
2023-05-20T03:57:57.227Z,8.17
2023-05-20T04:00:24.404Z,8.14
2023-05-20T04:02:51.457Z,8.11
2023-05-20T04:05:18.788Z,8.08
2023-05-20T04:07:45.814Z,8.06
2023-05-20T04:10:12.984Z,8.04
2023-05-20T04:12:40.025Z,8.04
2023-05-20T04:15:07.992Z,8.02
2023-05-20T04:17:37.929Z,8.04
2023-05-20T04:20:07.479Z,8.05
2023-05-20T04:22:35.126Z,8.09
2023-05-20T04:25:03.948Z,8.12
2023-05-20T04:27:31.619Z,8.18
2023-05-20T04:29:58.996Z,8.25
2023-05-20T04:32:27.106Z,8.29
2023-05-20T04:34:56.326Z,8.33
2023-05-20T04:37:23.306Z,8.40
2023-05-20T04:39:51.365Z,8.45
2023-05-20T04:42:19.381Z,8.48
2023-05-20T04:44:46.457Z,8.53
2023-05-20T04:47:14.177Z,8.58
2023-05-20T04:49:41.552Z,8.62
2023-05-20T04:52:08.653Z,8.64
2023-05-20T04:54:35.701Z,8.67
2023-05-20T04:57:03.162Z,8.69
2023-05-20T04:59:30.114Z,8.72
2023-05-20T05:01:57.131Z,8.76
2023-05-20T05:04:24.154Z,8.78
2023-05-20T05:06:51.185Z,8.84
2023-05-20T05:09:18.133Z,9.14
2023-05-20T05:11:45.102Z,9.59
2023-05-20T05:14:12.114Z,10.09
2023-05-20T05:16:39.071Z,10.60
2023-05-20T05:19:06.309Z,11.09
2023-05-20T05:21:33.404Z,11.57
2023-05-20T05:24:00.384Z,12.00
2023-05-20T05:26:27.321Z,12.39
2023-05-20T05:28:55.680Z,12.79
2023-05-20T05:31:22.668Z,13.15
2023-05-20T05:33:49.694Z,13.44
2023-05-20T05:36:17.237Z,13.78
2023-05-20T05:38:44.784Z,14.08
2023-05-20T05:41:11.759Z,14.28
2023-05-20T05:43:38.695Z,14.50
2023-05-20T05:46:05.744Z,14.75
2023-05-20T05:48:32.997Z,15.01
2023-05-20T05:50:59.916Z,15.13
2023-05-20T05:53:27.164Z,15.43
2023-05-20T05:55:54.369Z,15.55
2023-05-20T05:58:21.338Z,15.78
2023-05-20T06:00:53.284Z,16.03
2023-05-20T06:03:20.392Z,16.16
2023-05-20T06:05:50.155Z,16.27
2023-05-20T06:08:17.319Z,16.57
2023-05-20T06:10:51.571Z,16.71
2023-05-20T06:13:19.007Z,16.81
2023-05-20T06:15:46.716Z,17.04
2023-05-20T06:18:13.733Z,17.26
2023-05-20T06:20:41.290Z,17.43
2023-05-20T06:23:08.280Z,17.51
2023-05-20T06:25:35.401Z,17.74
2023-05-20T06:28:02.597Z,17.75
2023-05-20T06:30:29.517Z,17.57
2023-05-20T06:32:56.491Z,17.72
2023-05-20T06:35:23.487Z,17.41
2023-05-20T06:37:50.513Z,17.41
2023-05-20T06:40:17.587Z,17.37
2023-05-20T06:42:44.602Z,17.42
2023-05-20T06:45:12.064Z,17.24
2023-05-20T06:47:39.018Z,17.13
2023-05-20T06:50:06.597Z,17.02
2023-05-20T06:52:33.560Z,17.12
2023-05-20T06:55:00.970Z,17.16
2023-05-20T06:57:27.977Z,17.07
2023-05-20T06:59:54.898Z,17.10
2023-05-20T07:02:22.822Z,17.03
2023-05-20T07:04:50.068Z,17.06
2023-05-20T07:07:17.448Z,16.98
2023-05-20T07:09:44.608Z,16.64
2023-05-20T07:12:11.556Z,16.67
2023-05-20T07:14:38.482Z,16.69
2023-05-20T07:17:06.208Z,16.68
2023-05-20T07:19:34.169Z,16.70
2023-05-20T07:22:01.311Z,16.69
2023-05-20T07:24:28.305Z,16.58
2023-05-20T07:26:55.270Z,16.62
2023-05-20T07:29:22.208Z,16.66
2023-05-20T07:31:49.160Z,16.54
2023-05-20T07:34:16.324Z,16.68
2023-05-20T07:36:44.011Z,16.65
2023-05-20T07:39:14.340Z,16.71
2023-05-20T07:41:42.405Z,16.68
2023-05-20T07:44:13.765Z,16.67
2023-05-20T07:46:42.129Z,16.77
2023-05-20T07:49:09.184Z,16.73
2023-05-20T07:51:36.514Z,16.78
2023-05-20T07:54:03.816Z,16.93
2023-05-20T07:56:30.917Z,16.82
2023-05-20T07:59:00.630Z,17.00
2023-05-20T08:01:27.773Z,17.09
2023-05-20T08:03:55.171Z,17.25
2023-05-20T08:06:24.521Z,17.33
2023-05-20T08:08:51.519Z,17.46
2023-05-20T08:11:18.453Z,17.53
2023-05-20T08:13:45.417Z,17.46
2023-05-20T08:16:12.383Z,17.29
2023-05-20T08:18:39.735Z,17.26
2023-05-20T08:21:10.295Z,17.25
2023-05-20T08:23:40.190Z,17.23
2023-05-20T08:26:07.997Z,17.26
2023-05-20T08:28:37.383Z,17.23
2023-05-20T08:31:04.648Z,17.49
2023-05-20T08:33:31.641Z,17.52
2023-05-20T08:35:58.667Z,17.58
2023-05-20T08:38:25.758Z,17.69
2023-05-20T08:40:57.663Z,17.77
2023-05-20T08:43:25.887Z,17.77
2023-05-20T08:45:53.087Z,17.84
2023-05-20T08:48:26.346Z,17.84
2023-05-20T08:50:54.052Z,17.77
2023-05-20T08:53:23.168Z,17.72
2023-05-20T08:56:03.846Z,17.60
2023-05-20T08:58:31.278Z,17.67
2023-05-20T09:01:01.566Z,17.54
2023-05-20T09:03:29.136Z,17.42
2023-05-20T09:06:06.021Z,17.31
2023-05-20T09:08:33.915Z,17.26
2023-05-20T09:11:01.392Z,17.26
2023-05-20T09:13:32.975Z,17.32
2023-05-20T09:16:02.376Z,17.36
2023-05-20T09:18:29.975Z,17.26
2023-05-20T09:20:57.356Z,17.27
2023-05-20T09:23:25.980Z,17.20
2023-05-20T09:25:53.241Z,17.26
2023-05-20T09:28:25.556Z,17.31
2023-05-20T09:30:59.126Z,17.47
2023-05-20T09:33:30.470Z,17.46
2023-05-20T09:36:10.796Z,17.48
2023-05-20T09:38:40.082Z,17.52
2023-05-20T09:41:12.742Z,17.45
2023-05-20T09:43:43.119Z,17.52
2023-05-20T09:46:11.160Z,17.53
2023-05-20T09:48:38.770Z,17.61
2023-05-20T09:51:08.266Z,17.68
2023-05-20T09:53:36.304Z,17.60
2023-05-20T09:56:03.986Z,17.68
2023-05-20T09:58:31.428Z,17.57
2023-05-20T10:00:58.572Z,17.69
2023-05-20T10:03:28.505Z,17.78
2023-05-20T10:06:36.864Z,17.77
2023-05-20T10:09:21.710Z,17.86
2023-05-20T10:11:57.771Z,17.91
2023-05-20T10:14:51.415Z,17.95
2023-05-20T10:17:30.591Z,18.01
2023-05-20T10:20:01.397Z,18.03
2023-05-20T10:22:30.499Z,18.16
2023-05-20T10:25:07.876Z,18.28
2023-05-20T10:27:48.299Z,18.38
2023-05-20T10:30:22.830Z,18.37
2023-05-20T10:32:57.183Z,18.36
2023-05-20T10:35:28.946Z,18.43
2023-05-20T10:38:10.687Z,18.41
2023-05-20T10:40:38.240Z,18.51
2023-05-20T10:43:14.457Z,18.50
2023-05-20T10:45:50.337Z,18.64
2023-05-20T10:48:31.883Z,18.73
2023-05-20T10:51:06.729Z,18.73
2023-05-20T10:53:42.535Z,18.78
2023-05-20T10:56:24.720Z,18.90
2023-05-20T10:58:54.006Z,18.92
2023-05-20T11:01:26.985Z,18.99
2023-05-20T11:03:58.524Z,18.83
2023-05-20T11:06:29.252Z,18.79
2023-05-20T11:08:56.776Z,18.87
2023-05-20T11:11:24.301Z,18.96
2023-05-20T11:13:53.312Z,18.96
2023-05-20T11:16:23.438Z,18.88
2023-05-20T11:18:51.034Z,18.88
2023-05-20T11:21:20.552Z,18.91
2023-05-20T11:23:47.602Z,18.84
2023-05-20T11:26:14.594Z,18.92
2023-05-20T11:28:41.649Z,19.02
2023-05-20T11:31:08.822Z,19.00
2023-05-20T11:33:35.903Z,19.01
2023-05-20T11:36:06.542Z,19.10
2023-05-20T11:38:38.491Z,19.18
2023-05-20T11:41:05.517Z,19.32
2023-05-20T11:43:34.306Z,19.39
2023-05-20T11:46:01.425Z,19.49
2023-05-20T11:48:28.516Z,19.54
2023-05-20T11:50:57.096Z,19.58
2023-05-20T11:53:25.588Z,19.65
2023-05-20T11:55:58.524Z,19.68
2023-05-20T11:58:29.760Z,19.83
2023-05-20T12:01:05.726Z,19.90
2023-05-20T12:03:40.941Z,19.97
2023-05-20T12:06:08.275Z,20.02
2023-05-20T12:08:35.217Z,20.01
2023-05-20T12:11:02.222Z,19.98
2023-05-20T12:13:29.274Z,19.99
2023-05-20T12:15:56.307Z,19.97
2023-05-20T12:18:23.392Z,19.86
2023-05-20T12:20:50.300Z,19.88
2023-05-20T12:23:17.296Z,19.97
2023-05-20T12:25:47.547Z,20.06
2023-05-20T12:28:14.862Z,20.05
2023-05-20T12:30:42.061Z,20.10
2023-05-20T12:33:09.619Z,19.98
2023-05-20T12:35:39.757Z,20.04
2023-05-20T12:38:07.595Z,20.01
2023-05-20T12:40:35.793Z,19.92
2023-05-20T12:43:04.879Z,19.99
2023-05-20T12:45:32.068Z,19.97
2023-05-20T12:47:59.628Z,19.96
2023-05-20T12:50:27.530Z,20.05
2023-05-20T12:52:54.511Z,20.13
2023-05-20T12:55:21.591Z,20.12
2023-05-20T12:57:49.053Z,20.20
2023-05-20T13:00:16.896Z,20.29
2023-05-20T13:02:44.015Z,20.29
2023-05-20T13:05:11.722Z,20.30
2023-05-20T13:07:38.888Z,20.30
2023-05-20T13:10:07.747Z,20.33
2023-05-20T13:12:35.649Z,20.38
2023-05-20T13:15:03.440Z,20.43
2023-05-20T13:17:30.786Z,20.53
2023-05-20T13:19:58.597Z,20.57
2023-05-20T13:22:25.526Z,20.58
2023-05-20T13:24:52.523Z,20.63
2023-05-20T13:27:19.479Z,20.64
2023-05-20T13:29:46.652Z,20.68
2023-05-20T13:32:13.632Z,20.69
2023-05-20T13:34:40.736Z,20.67
2023-05-20T13:37:07.823Z,20.75
2023-05-20T13:39:35.016Z,20.76
2023-05-20T13:42:02.102Z,20.72
2023-05-20T13:44:30.603Z,20.65
2023-05-20T13:46:58.259Z,20.70
2023-05-20T13:49:25.925Z,20.64
2023-05-20T13:51:52.969Z,20.63
2023-05-20T13:54:21.922Z,20.70
2023-05-20T13:56:49.340Z,20.56
2023-05-20T13:59:16.529Z,20.47
2023-05-20T14:01:45.660Z,20.53
2023-05-20T14:04:13.484Z,20.56
2023-05-20T14:06:40.822Z,20.57
2023-05-20T14:09:09.511Z,20.60
2023-05-20T14:11:37.337Z,20.59
2023-05-20T14:14:04.449Z,20.64
2023-05-20T14:16:32.862Z,20.68
2023-05-20T14:19:00.108Z,20.70
2023-05-20T14:21:27.100Z,20.72
2023-05-20T14:23:54.115Z,20.68
2023-05-20T14:26:22.022Z,20.64
2023-05-20T14:28:49.347Z,20.74
2023-05-20T14:31:16.691Z,20.71
2023-05-20T14:33:43.754Z,20.77
2023-05-20T14:36:11.590Z,20.73
2023-05-20T14:38:38.724Z,20.68
2023-05-20T14:41:05.765Z,20.75
2023-05-20T14:43:32.952Z,20.80
2023-05-20T14:46:00.164Z,20.96
2023-05-20T14:48:27.114Z,21.07
2023-05-20T14:50:54.233Z,21.03
2023-05-20T14:53:21.629Z,21.02
2023-05-20T14:55:48.748Z,20.96
2023-05-20T14:58:15.756Z,21.07
2023-05-20T15:00:42.794Z,21.16
2023-05-20T15:03:09.915Z,21.28
2023-05-20T15:05:37.108Z,21.37
2023-05-20T15:08:04.383Z,21.30
2023-05-20T15:10:31.773Z,21.14
2023-05-20T15:12:58.752Z,21.00
2023-05-20T15:15:25.980Z,20.98
2023-05-20T15:17:53.011Z,20.94
2023-05-20T15:20:20.039Z,20.83
2023-05-20T15:22:48.438Z,20.81
2023-05-20T15:25:15.659Z,20.83
2023-05-20T15:27:43.264Z,20.86
2023-05-20T15:30:11.409Z,20.76
2023-05-20T15:32:39.941Z,20.68
2023-05-20T15:35:07.722Z,20.59
2023-05-20T15:37:34.953Z,20.60
2023-05-20T15:40:02.121Z,20.66
2023-05-20T15:42:29.144Z,20.71
2023-05-20T15:44:56.290Z,20.80
2023-05-20T15:47:23.334Z,20.83
2023-05-20T15:49:50.349Z,20.81
2023-05-20T15:52:17.357Z,20.73
2023-05-20T15:54:44.278Z,20.61
2023-05-20T15:57:11.254Z,20.48
2023-05-20T15:59:38.238Z,20.41
2023-05-20T16:02:05.252Z,20.39
2023-05-20T16:04:32.873Z,20.36
2023-05-20T16:06:59.961Z,20.41
2023-05-20T16:09:26.938Z,20.39
2023-05-20T16:11:56.693Z,20.42
2023-05-20T16:14:23.864Z,20.46
2023-05-20T16:16:50.882Z,20.53
2023-05-20T16:19:17.978Z,20.52
2023-05-20T16:21:45.168Z,20.49
2023-05-20T16:24:12.633Z,20.49
2023-05-20T16:26:39.716Z,20.47
2023-05-20T16:29:06.869Z,20.34
2023-05-20T16:31:33.972Z,20.32
2023-05-20T16:34:00.943Z,20.22
2023-05-20T16:36:27.944Z,20.15
2023-05-20T16:38:54.881Z,20.10
2023-05-20T16:41:23.109Z,20.09
2023-05-20T16:43:50.105Z,20.07
2023-05-20T16:46:17.206Z,20.02
2023-05-20T16:48:44.208Z,19.95
2023-05-20T16:51:11.458Z,19.84
2023-05-20T16:53:38.498Z,19.85
2023-05-20T16:56:08.476Z,19.85
2023-05-20T16:58:35.916Z,19.82
2023-05-20T17:01:02.938Z,19.81
2023-05-20T17:03:29.973Z,19.78
2023-05-20T17:05:57.464Z,19.68
2023-05-20T17:08:24.459Z,19.67
2023-05-20T17:10:54.231Z,19.63
2023-05-20T17:13:21.891Z,19.56
2023-05-20T17:15:48.867Z,19.53
2023-05-20T17:18:16.933Z,19.44
2023-05-20T17:20:43.970Z,19.43
2023-05-20T17:23:11.009Z,19.41
2023-05-20T17:25:38.169Z,19.42
2023-05-20T17:28:05.256Z,19.42
2023-05-20T17:30:32.347Z,19.41
2023-05-20T17:32:59.520Z,19.37
2023-05-20T17:35:26.697Z,19.35
2023-05-20T17:37:54.016Z,19.34
2023-05-20T17:40:21.585Z,19.32
2023-05-20T17:42:48.704Z,19.31
2023-05-20T17:45:16.454Z,19.25
2023-05-20T17:47:43.445Z,19.20
2023-05-20T17:50:11.197Z,19.18
2023-05-20T17:52:38.283Z,19.17
2023-05-20T17:55:06.907Z,19.14
2023-05-20T17:57:34.540Z,19.13
2023-05-20T18:00:02.503Z,19.05
2023-05-20T18:02:29.644Z,18.97
2023-05-20T18:04:56.649Z,18.97
2023-05-20T18:07:23.657Z,18.85
2023-05-20T18:09:50.794Z,18.79
2023-05-20T18:12:17.832Z,18.74
2023-05-20T18:14:45.760Z,18.74
2023-05-20T18:17:12.781Z,18.65
2023-05-20T18:19:39.805Z,18.60
2023-05-20T18:22:07.505Z,18.56
2023-05-20T18:24:34.550Z,18.59
2023-05-20T18:27:01.630Z,18.54
2023-05-20T18:29:28.863Z,18.44
2023-05-20T18:31:55.922Z,18.41
2023-05-20T18:34:22.963Z,18.34
2023-05-20T18:36:50.129Z,18.25
2023-05-20T18:39:20.765Z,18.22
2023-05-20T18:41:48.768Z,18.20
2023-05-20T18:44:19.957Z,18.15
2023-05-20T18:46:46.970Z,18.13
2023-05-20T18:49:14.022Z,18.05
2023-05-20T18:51:41.580Z,18.07
2023-05-20T18:54:08.784Z,18.02
2023-05-20T18:56:36.369Z,17.98
2023-05-20T18:59:03.365Z,17.91
2023-05-20T19:01:30.641Z,17.88
2023-05-20T19:03:57.640Z,17.79
2023-05-20T19:06:24.703Z,17.72
2023-05-20T19:08:51.657Z,17.64
2023-05-20T19:11:18.795Z,17.55
2023-05-20T19:13:45.730Z,17.46
2023-05-20T19:16:12.774Z,17.41
2023-05-20T19:18:39.864Z,17.40
2023-05-20T19:21:06.778Z,17.28
2023-05-20T19:23:33.841Z,17.19
2023-05-20T19:26:00.969Z,17.11
2023-05-20T19:28:28.109Z,17.04
2023-05-20T19:30:55.076Z,16.93
2023-05-20T19:33:22.267Z,16.87
2023-05-20T19:35:49.236Z,16.80
2023-05-20T19:38:16.597Z,16.71
2023-05-20T19:40:44.862Z,16.63
2023-05-20T19:43:12.040Z,16.54
2023-05-20T19:45:39.169Z,16.45
2023-05-20T19:48:06.992Z,16.35
2023-05-20T19:50:34.481Z,16.24
2023-05-20T19:53:06.408Z,16.13
2023-05-20T19:55:36.507Z,16.07
2023-05-20T19:58:31.491Z,15.92
2023-05-20T20:00:58.752Z,15.85
2023-05-20T20:03:25.874Z,15.76
2023-05-20T20:05:53.364Z,15.64
2023-05-20T20:08:20.297Z,15.58
2023-05-20T20:10:47.306Z,15.49
2023-05-20T20:13:14.806Z,15.40
2023-05-20T20:15:41.740Z,15.33
2023-05-20T20:18:08.788Z,15.27
2023-05-20T20:20:40.195Z,15.19
2023-05-20T20:23:08.764Z,15.13
2023-05-20T20:25:39.701Z,15.05
2023-05-20T20:28:09.049Z,14.96
2023-05-20T20:30:38.930Z,14.90
2023-05-20T20:33:08.869Z,14.82
2023-05-20T20:35:37.241Z,14.71
2023-05-20T20:38:10.755Z,14.64
2023-05-20T20:40:42.137Z,14.56
2023-05-20T20:43:11.160Z,14.49
2023-05-20T20:45:38.306Z,14.42
2023-05-20T20:48:08.259Z,14.35
2023-05-20T20:50:36.638Z,14.29
2023-05-20T20:53:03.698Z,14.21
2023-05-20T20:55:30.932Z,14.16
2023-05-20T20:57:58.617Z,14.10
2023-05-20T21:00:27.182Z,14.03
2023-05-20T21:02:54.365Z,13.97
2023-05-20T21:05:21.834Z,13.91
2023-05-20T21:07:52.750Z,13.84
2023-05-20T21:10:19.835Z,13.80
2023-05-20T21:12:46.895Z,13.72
2023-05-20T21:15:15.233Z,13.68
2023-05-20T21:17:42.383Z,13.64
2023-05-20T21:20:10.328Z,13.57
2023-05-20T21:22:37.269Z,13.53
2023-05-20T21:25:04.681Z,13.48
2023-05-20T21:27:31.667Z,13.41
2023-05-20T21:29:58.666Z,13.37
2023-05-20T21:32:25.772Z,13.32
2023-05-20T21:34:52.770Z,13.26
2023-05-20T21:37:19.681Z,13.22
2023-05-20T21:39:46.651Z,13.16
2023-05-20T21:42:13.658Z,13.07
2023-05-20T21:44:40.710Z,13.07
2023-05-20T21:47:07.708Z,13.00
2023-05-20T21:49:34.756Z,12.96
2023-05-20T21:52:01.780Z,12.89
2023-05-20T21:54:28.730Z,12.86
2023-05-20T21:56:55.720Z,12.82
2023-05-20T21:59:22.627Z,12.76
2023-05-20T22:01:51.064Z,12.67
2023-05-20T22:04:19.360Z,12.65
2023-05-20T22:06:46.341Z,12.61
2023-05-20T22:09:13.287Z,12.58
2023-05-20T22:11:40.232Z,12.52
2023-05-20T22:14:07.241Z,12.48
2023-05-20T22:16:34.256Z,12.43
2023-05-20T22:19:02.862Z,12.39
2023-05-20T22:21:32.105Z,12.35
2023-05-20T22:24:01.224Z,12.28
2023-05-20T22:26:28.731Z,12.25
2023-05-20T22:28:55.647Z,12.19
2023-05-20T22:31:22.655Z,12.17
2023-05-20T22:33:49.820Z,12.13
2023-05-20T22:36:16.815Z,12.07
2023-05-20T22:38:43.825Z,12.04
2023-05-20T22:41:11.076Z,12.00
2023-05-20T22:43:38.004Z,11.99
2023-05-20T22:46:05.176Z,11.94
2023-05-20T22:48:32.334Z,11.90
2023-05-20T22:50:59.234Z,11.89
2023-05-20T22:53:26.504Z,11.82
2023-05-20T22:55:53.600Z,11.79
2023-05-20T22:58:20.528Z,11.74
2023-05-20T23:00:47.503Z,11.68
2023-05-20T23:03:14.540Z,11.65
2023-05-20T23:05:41.799Z,11.57
2023-05-20T23:08:08.747Z,11.52
2023-05-20T23:10:35.726Z,11.43
2023-05-20T23:13:02.862Z,11.36
2023-05-20T23:15:31.361Z,11.29
2023-05-20T23:17:58.866Z,11.19
2023-05-20T23:20:26.070Z,11.14
2023-05-20T23:22:53.008Z,11.02
2023-05-20T23:25:20.064Z,10.97
2023-05-20T23:27:47.046Z,10.90
2023-05-20T23:30:14.053Z,10.84
2023-05-20T23:32:41.077Z,10.79
2023-05-20T23:35:11.883Z,10.76
2023-05-20T23:37:39.153Z,10.68
2023-05-20T23:40:09.724Z,10.64
2023-05-20T23:42:37.047Z,10.59
2023-05-20T23:45:06.397Z,10.54
2023-05-20T23:47:34.070Z,10.51
2023-05-20T23:50:01.828Z,10.44
2023-05-20T23:52:28.844Z,10.44
2023-05-20T23:54:56.827Z,10.41
2023-05-20T23:57:23.739Z,10.36
2023-05-20T23:59:51.065Z,10.32
